Address 0x6436b8efadcf9de6fba945f7ca9955565a51d2db 8

 
Txn Hash Method
Block
From
To
Value [Txn Fee]
0x486d941c5f3970131e28e4e3556316f6ca640fa406ddfe583c5f5b5e3c6d97e30x41706c4e207160852021-10-28 20:43:405 mins ago0x6436b8efadcf9de6fba945f7ca9955565a51d2dbOUT 0x86c80a8aa58e0a4fa09a69624c31ab2a6cad56b80 MATIC0.0023613408
0xe4761b5b6a1634e57febd340916e44cbe579accb1fd9790c495f82615ded44ddExecute Meta Tra...207158242021-10-28 20:34:0814 mins ago0x6436b8efadcf9de6fba945f7ca9955565a51d2dbOUT 0x89aac1f5ccdd54dd8a09e5c858f19a665e4fa32b0 MATIC0.00642501
0xefa782de3b63c0788c092da0dc3b061dd9a770675de4e35dfbc463bfd4b09b57Execute Meta Tra...207156282021-10-28 20:24:3824 mins ago0x6436b8efadcf9de6fba945f7ca9955565a51d2dbOUT 0x89aac1f5ccdd54dd8a09e5c858f19a665e4fa32b0 MATIC0.007067907
0x04b887f63fbe6b891018e6735cb2316b5d52a0545d3e86b3053bb7634295e9a6Execute Meta Tra...207153242021-10-28 20:12:4036 mins ago0x6436b8efadcf9de6fba945f7ca9955565a51d2dbOUT 0xa5f1ea7df861952863df2e8d1312f7305dabf2150 MATIC0.00385722
0x0bd8b804598d59961e54058c56bef356fe72ab39b4dacda85642c0b713f6ad47Execute Meta Tra...207149562021-10-28 20:00:0348 mins ago0x6436b8efadcf9de6fba945f7ca9955565a51d2dbOUT 0xa102072a4c07f06ec3b4900fdc4c7b80b6c574290 MATIC0.00724416
0x6ca3d7a49f291e3b098d47a71e6f4f60a7663c421b05b314bcd2110abd41e666Execute Meta Tra...207141852021-10-28 19:30:561 hr 17 mins ago0x6436b8efadcf9de6fba945f7ca9955565a51d2dbOUT 0x89aac1f5ccdd54dd8a09e5c858f19a665e4fa32b0 MATIC0.009637515
0xe01e28e51de30cc40dfe0a7d49779eddb2498704ff5aeecb909782d3eb547d6dExecute Meta Tra...207138222021-10-28 19:15:121 hr 33 mins ago0x6436b8efadcf9de6fba945f7ca9955565a51d2dbOUT 0x89aac1f5ccdd54dd8a09e5c858f19a665e4fa32b0 MATIC0.009638055
0x26625934d9ad9dc2a17923d8de92360976ecd6f4ffd6ff9f4d56ead205c1088bExecute Meta Tra...207134382021-10-28 19:00:581 hr 47 mins ago0x6436b8efadcf9de6fba945f7ca9955565a51d2dbOUT 0xbf79ce2fbd819e5abc2327563d02a200255b7cb30 MATIC0.002069802
0x5b767673f0691bde237eecaafc0436ad96654de0d57d7454e1040cdb76dc9057Execute Meta Tra...207131152021-10-28 18:49:501 hr 59 mins ago0x6436b8efadcf9de6fba945f7ca9955565a51d2dbOUT 0x89aac1f5ccdd54dd8a09e5c858f19a665e4fa32b0 MATIC0.0214167
0x452fa5fe63c03819ff5b480ab2f062eec483de02ff053279e1d1176b175cea5cForward Meta Tx207125262021-10-28 18:24:402 hrs 24 mins ago0x6436b8efadcf9de6fba945f7ca9955565a51d2dbOUT 0x0babda04f62c549a09ef3313fe187f29c099ff3c0 MATIC0.006276105
0x049d64f00886550e845db6928408ba0aea0db34b86f2ad9473d7c3a74b9bb9f8Execute Meta Tra...207121642021-10-28 18:07:562 hrs 40 mins ago0x6436b8efadcf9de6fba945f7ca9955565a51d2dbOUT 0x89aac1f5ccdd54dd8a09e5c858f19a665e4fa32b0 MATIC0.00642429
0x2e05a89dbc559c1184e2ff67c9c7cc69e57b5c1134f63b009afffb5fd3921f1dExecute Meta Tra...207118032021-10-28 17:55:222 hrs 53 mins ago0x6436b8efadcf9de6fba945f7ca9955565a51d2dbOUT 0x89aac1f5ccdd54dd8a09e5c858f19a665e4fa32b0 MATIC0.0214155
0x28336083e904dcc7f7f83527e4a79d3a2e1af7c31a99e53dff4b6e0235096c23Execute Meta Tra...207114672021-10-28 17:40:533 hrs 8 mins ago0x6436b8efadcf9de6fba945f7ca9955565a51d2dbOUT 0x89aac1f5ccdd54dd8a09e5c858f19a665e4fa32b0 MATIC0.01927503
0x64a0ffb4523e73f663d58aee35d9838b8f059537ac78bd9fc38e3a3577829b00Forward Meta Tx207111952021-10-28 17:30:053 hrs 18 mins ago0x6436b8efadcf9de6fba945f7ca9955565a51d2dbOUT 0x0babda04f62c549a09ef3313fe187f29c099ff3c0 MATIC0.24061657
0x539068432f21cf24234b702c73af46d1d52ce3216d763d63080d8a66bc28e39bExecute Meta Tra...207108232021-10-28 17:17:173 hrs 31 mins ago0x6436b8efadcf9de6fba945f7ca9955565a51d2dbOUT 0xeda1f66f5c765ac16b4333c53f3f83f781d01c8b0 MATIC0.02753751
0xddc551edb0b57711c374cd139ce363e15f108926d7d0db68c756d23ba5080de8Execute Meta Tra...207104682021-10-28 17:05:073 hrs 43 mins ago0x6436b8efadcf9de6fba945f7ca9955565a51d2dbOUT 0x89aac1f5ccdd54dd8a09e5c858f19a665e4fa32b0 MATIC0.00642501
0xd2d313cbe87b718feb52fb616e0d15fce89e0ff56608627cc574f915b2f4699eExecute Meta Tra...207101202021-10-28 16:53:073 hrs 55 mins ago0x6436b8efadcf9de6fba945f7ca9955565a51d2dbOUT 0x89aac1f5ccdd54dd8a09e5c858f19a665e4fa32b0 MATIC0.011779185
0x6b42570fec7f1ead7c7f17b8f1bf6d4c0732a87d8038b9c899cd09d1ddc5c48cForward Meta Tx207097622021-10-28 16:38:434 hrs 10 mins ago0x6436b8efadcf9de6fba945f7ca9955565a51d2dbOUT 0x0babda04f62c549a09ef3313fe187f29c099ff3c0 MATIC0.16127832
0x7105882751ba7cb961b54f642952c8ebbcb9ad59c15bc757586133b10b475d4eExecute Meta Tra...207091262021-10-28 16:16:114 hrs 32 mins ago0x6436b8efadcf9de6fba945f7ca9955565a51d2dbOUT 0x89aac1f5ccdd54dd8a09e5c858f19a665e4fa32b0 MATIC0.009637515
0x8d2b20b4a06d62b21d50dd59ceb85d265708a9b89f1b8663c817f38f82e2e4300x41706c4e207087782021-10-28 16:04:114 hrs 44 mins ago0x6436b8efadcf9de6fba945f7ca9955565a51d2dbOUT 0x86c80a8aa58e0a4fa09a69624c31ab2a6cad56b80 MATIC0.003543271066
0x50e25510c3f4fa48885a5bb8f197faacb60d0a05701dfea6884631e2de0a0126Execute Meta Tra...207084822021-10-28 15:51:554 hrs 56 mins ago0x6436b8efadcf9de6fba945f7ca9955565a51d2dbOUT 0x89aac1f5ccdd54dd8a09e5c858f19a665e4fa32b0 MATIC0.006639177
0xf3ef51454d3d23fb1aa5634b26fd197e23721b6c71463b9a00dacb5c639f752cForward Meta Tx207082252021-10-28 15:43:015 hrs 5 mins ago0x6436b8efadcf9de6fba945f7ca9955565a51d2dbOUT 0x0babda04f62c549a09ef3313fe187f29c099ff3c0 MATIC0.0472776
0x8c46c7fa243f13787885aa9fc1fdf58cadb11375d0688d2338a07c2a129948c9Execute Meta Tra...207079372021-10-28 15:32:475 hrs 16 mins ago0x6436b8efadcf9de6fba945f7ca9955565a51d2dbOUT 0x89aac1f5ccdd54dd8a09e5c858f19a665e4fa32b0 MATIC0.0214155
0xd31e38951a310ce0a7fbcf393d3e3ec411420d4fbfdf4ca416e33bf94064cfa6Execute Meta Tra...207077192021-10-28 15:25:195 hrs 23 mins ago0x6436b8efadcf9de6fba945f7ca9955565a51d2dbOUT 0x7ceb23fd6bc0add59e62ac25578270cff1b9f6190 MATIC0.0166766
0xc1360b1d7720685a800bd6cb6377c8775b4b1a50e9573a4b47643a3a4f67f752Forward Meta Tx207067092021-10-28 14:50:305 hrs 58 mins ago0x6436b8efadcf9de6fba945f7ca9955565a51d2dbOUT 0x0babda04f62c549a09ef3313fe187f29c099ff3c0 MATIC0.03546
[ Download CSV Export 
Parent Txn Hash Block From To Value
Loading

Contract Name:
0 MATIC

Compiler Version
0

Optimization Enabled:
0 MATIC

Other Settings:
-NA-
Block Transaction Gas Used Reward
Age Block Fee Address BC Fee Address Voting Power Jailed Incoming
Block Uncle Number Difficulty Gas Used Reward
Loading
Loading
Make sure to use the "Vote Down" button for any spammy posts, and the "Vote Up" for interesting conversations.